createdAt,value
2022-12-01T00:01:18.747Z,45.47
2022-12-01T00:03:45.488Z,43.38
2022-12-01T00:06:16.379Z,33.92
2022-12-01T00:09:03.109Z,35.83
2022-12-01T00:11:29.989Z,23.23
2022-12-01T00:13:56.720Z,19.77
2022-12-01T00:16:23.479Z,19.70
2022-12-01T00:18:51.717Z,17.20
2022-12-01T00:21:20.680Z,15.73
2022-12-01T00:23:49.449Z,18.33
2022-12-01T00:26:17.948Z,21.48
2022-12-01T00:28:48.099Z,17.83
2022-12-01T00:31:14.795Z,18.02
2022-12-01T00:33:41.466Z,13.63
2022-12-01T00:36:08.449Z,20.15
2022-12-01T00:38:35.783Z,17.45
2022-12-01T00:41:03.295Z,21.98
2022-12-01T00:43:30.347Z,19.85
2022-12-01T00:45:57.504Z,20.52
2022-12-01T00:48:24.301Z,21.60
2022-12-01T00:50:52.649Z,22.33
2022-12-01T00:53:19.485Z,23.80
2022-12-01T00:55:46.197Z,22.88
2022-12-01T00:58:12.939Z,27.02
2022-12-01T01:00:39.570Z,28.13
2022-12-01T01:03:07.364Z,38.72
2022-12-01T01:05:38.334Z,28.63
2022-12-01T01:08:12.873Z,15.90
2022-12-01T01:13:07.169Z,13.68
2022-12-01T01:15:34.724Z,19.13
2022-12-01T01:18:01.752Z,17.90
2022-12-01T01:20:28.540Z,21.05
2022-12-01T01:22:55.282Z,31.13
2022-12-01T01:25:22.863Z,31.70
2022-12-01T01:27:49.767Z,32.67
2022-12-01T01:30:17.003Z,32.75
2022-12-01T01:32:43.623Z,34.40
2022-12-01T01:35:10.446Z,40.40
2022-12-01T01:37:37.069Z,31.55
2022-12-01T01:40:04.044Z,31.10
2022-12-01T01:42:30.696Z,34.05
2022-12-01T01:44:58.703Z,33.58
2022-12-01T01:47:32.696Z,40.08
2022-12-01T01:50:06.326Z,32.58
2022-12-01T01:52:38.995Z,33.83
2022-12-01T01:55:06.303Z,28.30
2022-12-01T01:57:34.851Z,36.65
2022-12-01T02:00:09.263Z,35.83
2022-12-01T02:02:43.584Z,33.30
2022-12-01T02:07:42.018Z,26.92
2022-12-01T02:10:12.663Z,27.67
2022-12-01T02:12:54.324Z,25.60
2022-12-01T02:15:44.656Z,31.42
2022-12-01T02:18:11.314Z,26.73
2022-12-01T02:21:05.857Z,33.28
2022-12-01T02:23:54.028Z,23.77
2022-12-01T02:26:33.710Z,24.85
2022-12-01T02:29:19.085Z,25.25
2022-12-01T02:32:06.956Z,19.98
2022-12-01T02:34:59.563Z,27.55
2022-12-01T02:37:36.401Z,30.70
2022-12-01T02:40:19.016Z,31.00
2022-12-01T02:42:59.869Z,27.75
2022-12-01T02:45:41.716Z,31.85
2022-12-01T02:48:26.804Z,35.97
2022-12-01T02:50:56.424Z,34.63
2022-12-01T02:53:23.263Z,30.95
2022-12-01T02:55:52.854Z,29.92
2022-12-01T02:58:20.510Z,33.28
2022-12-01T03:01:13.664Z,29.95
2022-12-01T03:04:22.263Z,29.05
2022-12-01T03:07:35.320Z,31.05
2022-12-01T03:10:25.769Z,26.27
2022-12-01T03:13:04.281Z,29.13
2022-12-01T03:15:57.058Z,42.13
2022-12-01T03:18:26.507Z,34.17
2022-12-01T03:21:02.067Z,38.75
2022-12-01T03:23:33.501Z,95.70
2022-12-01T03:26:03.878Z,107.43
2022-12-01T03:28:35.194Z,89.60
2022-12-01T03:31:07.514Z,54.63
2022-12-01T03:33:43.398Z,37.20
2022-12-01T03:36:19.725Z,33.70
2022-12-01T03:38:52.676Z,31.90
2022-12-01T03:41:26.291Z,39.35
2022-12-01T03:44:01.303Z,53.27
2022-12-01T03:46:53.966Z,48.20
2022-12-01T03:49:24.751Z,61.75
2022-12-01T03:52:00.409Z,81.90
2022-12-01T03:54:35.939Z,123.72
2022-12-01T03:57:08.468Z,81.10
2022-12-01T03:59:37.127Z,60.30
2022-12-01T04:02:06.786Z,46.33
2022-12-01T04:04:33.548Z,42.65
2022-12-01T04:07:00.501Z,42.20
2022-12-01T04:09:27.186Z,36.65
2022-12-01T04:12:12.627Z,30.35
2022-12-01T04:14:39.227Z,41.20
2022-12-01T04:17:05.854Z,51.17
2022-12-01T04:19:32.530Z,54.30
2022-12-01T04:21:59.140Z,63.80
2022-12-01T04:24:25.759Z,40.92
2022-12-01T04:26:52.452Z,49.15
2022-12-01T04:29:19.157Z,54.10
2022-12-01T04:31:45.872Z,62.40
2022-12-01T04:34:12.543Z,56.22
2022-12-01T04:36:39.227Z,49.58
2022-12-01T04:39:06.049Z,49.92
2022-12-01T04:41:32.658Z,48.45
2022-12-01T04:43:59.258Z,46.70
2022-12-01T04:46:26.255Z,39.28
2022-12-01T04:48:52.997Z,43.50
2022-12-01T04:51:19.904Z,48.53
2022-12-01T04:53:46.650Z,43.70
2022-12-01T04:56:13.405Z,41.45
2022-12-01T04:58:41.250Z,55.63
2022-12-01T05:01:11.080Z,47.75
2022-12-01T05:03:43.934Z,52.42
2022-12-01T05:06:20.198Z,42.50
2022-12-01T05:08:47.593Z,37.78
2022-12-01T05:11:15.208Z,42.17
2022-12-01T05:13:44.183Z,46.15
2022-12-01T05:16:20.203Z,41.53
2022-12-01T05:19:12.137Z,32.58
2022-12-01T05:21:39.811Z,33.42
2022-12-01T05:24:07.363Z,32.60
2022-12-01T05:26:34.183Z,28.17
2022-12-01T05:29:01.113Z,35.72
2022-12-01T05:31:27.694Z,28.17
2022-12-01T05:33:54.330Z,34.03
2022-12-01T05:36:20.981Z,26.30
2022-12-01T05:38:47.661Z,34.97
2022-12-01T05:41:14.480Z,28.42
2022-12-01T05:43:41.288Z,35.47
2022-12-01T05:46:08.209Z,25.27
2022-12-01T05:48:35.045Z,31.95
2022-12-01T05:51:09.250Z,38.05
2022-12-01T05:53:35.996Z,34.72
2022-12-01T05:56:02.654Z,40.08
2022-12-01T05:58:29.288Z,65.53
2022-12-01T06:00:55.865Z,57.67
2022-12-01T06:03:22.719Z,45.97
2022-12-01T06:05:49.527Z,33.10
2022-12-01T06:08:16.173Z,40.92
2022-12-01T06:10:43.330Z,44.10
2022-12-01T06:13:10.100Z,47.00
2022-12-01T06:15:36.678Z,44.92
2022-12-01T06:18:03.309Z,53.38
2022-12-01T06:20:29.957Z,78.85
2022-12-01T06:22:56.613Z,59.90
2022-12-01T06:25:23.299Z,53.97
2022-12-01T06:27:49.899Z,58.58
2022-12-01T06:30:16.726Z,66.22
2022-12-01T06:32:43.259Z,63.63
2022-12-01T06:35:09.923Z,96.15
2022-12-01T06:37:36.540Z,99.13
2022-12-01T06:40:04.613Z,89.40
2022-12-01T06:42:32.399Z,78.53
2022-12-01T06:44:59.044Z,60.67
2022-12-01T06:47:25.669Z,61.33
2022-12-01T06:49:52.784Z,66.38
2022-12-01T06:52:19.457Z,86.75
2022-12-01T06:54:46.242Z,73.15
2022-12-01T06:57:13.209Z,71.47
2022-12-01T06:59:39.900Z,70.80
2022-12-01T07:02:06.717Z,55.63
2022-12-01T07:04:33.611Z,57.85
2022-12-01T07:07:05.207Z,54.35
2022-12-01T07:09:31.791Z,54.47
2022-12-01T07:11:58.499Z,59.90
2022-12-01T07:14:26.819Z,57.63
2022-12-01T07:16:53.738Z,55.85
2022-12-01T07:19:20.393Z,59.63
2022-12-01T07:21:46.979Z,67.65
2022-12-01T07:24:14.039Z,69.65
2022-12-01T07:26:41.558Z,65.70
2022-12-01T07:29:09.425Z,65.35
2022-12-01T07:31:37.114Z,66.57
2022-12-01T07:34:04.908Z,56.15
2022-12-01T07:36:31.577Z,57.42
2022-12-01T07:38:58.275Z,58.08
2022-12-01T07:41:27.744Z,61.53
2022-12-01T07:43:55.344Z,68.05
2022-12-01T07:46:28.605Z,63.88
2022-12-01T07:48:56.657Z,60.10
2022-12-01T07:51:24.751Z,62.10
2022-12-01T07:53:52.412Z,59.10
2022-12-01T07:56:47.121Z,62.83
2022-12-01T07:59:13.976Z,52.70
2022-12-01T08:01:44.692Z,37.17
2022-12-01T08:04:12.105Z,40.75
2022-12-01T08:06:39.124Z,33.30
2022-12-01T08:09:06.029Z,39.13
2022-12-01T08:11:32.669Z,36.40
2022-12-01T08:13:59.318Z,49.25
2022-12-01T08:16:26.067Z,31.73
2022-12-01T08:18:53.299Z,95.00
2022-12-01T08:21:21.942Z,63.92
2022-12-01T08:23:51.979Z,50.83
2022-12-01T08:26:19.654Z,43.17
2022-12-01T08:28:46.904Z,39.10
2022-12-01T08:31:27.456Z,44.22
2022-12-01T08:33:58.000Z,40.63
2022-12-01T08:36:25.871Z,40.80
2022-12-01T08:38:54.367Z,55.63
2022-12-01T08:41:24.821Z,44.50
2022-12-01T08:44:00.099Z,47.35
2022-12-01T08:46:31.803Z,39.40
2022-12-01T08:48:58.548Z,33.35
2022-12-01T08:51:26.392Z,29.77
2022-12-01T08:53:54.961Z,31.67
2022-12-01T08:56:28.221Z,41.13
2022-12-01T08:58:55.279Z,29.25
2022-12-01T09:01:22.940Z,33.13
2022-12-01T09:04:05.487Z,26.38
2022-12-01T09:06:41.558Z,29.30
2022-12-01T09:09:10.550Z,48.47
2022-12-01T09:11:37.390Z,39.92
2022-12-01T09:14:07.187Z,42.28
2022-12-01T09:16:33.889Z,43.35
2022-12-01T09:19:00.539Z,40.40
2022-12-01T09:21:33.726Z,45.85
2022-12-01T09:24:01.712Z,51.53
2022-12-01T09:26:29.206Z,52.08
2022-12-01T09:28:58.924Z,47.80
2022-12-01T09:31:25.964Z,57.85
2022-12-01T09:33:57.308Z,53.17
2022-12-01T09:36:24.556Z,51.20
2022-12-01T09:38:51.246Z,51.13
2022-12-01T09:41:24.443Z,42.35
2022-12-01T09:44:05.847Z,36.63
2022-12-01T09:46:37.532Z,32.55
2022-12-01T09:49:06.701Z,34.13
2022-12-01T09:51:36.324Z,57.15
2022-12-01T09:54:07.002Z,120.57
2022-12-01T09:56:42.582Z,235.48
2022-12-01T09:59:17.936Z,46.15
2022-12-01T10:01:48.201Z,48.58
2022-12-01T10:04:25.424Z,37.92
2022-12-01T10:07:02.278Z,39.63
2022-12-01T10:09:31.900Z,35.60
2022-12-01T10:12:07.079Z,46.80
2022-12-01T10:14:36.605Z,41.05
2022-12-01T10:17:18.750Z,41.10
2022-12-01T10:19:51.528Z,50.28
2022-12-01T10:22:27.233Z,46.45
2022-12-01T10:25:17.160Z,44.90
2022-12-01T10:28:20.986Z,36.55
2022-12-01T10:30:50.939Z,38.35
2022-12-01T10:33:35.291Z,36.45
2022-12-01T10:36:01.970Z,32.20
2022-12-01T10:38:35.851Z,47.38
2022-12-01T10:41:05.400Z,51.03
2022-12-01T10:43:39.242Z,42.00
2022-12-01T10:46:32.325Z,39.65
2022-12-01T10:49:06.759Z,31.75
2022-12-01T10:54:12.652Z,47.05
2022-12-01T10:56:45.790Z,36.15
2022-12-01T10:59:28.862Z,45.70
2022-12-01T11:01:57.607Z,39.08
2022-12-01T11:04:45.336Z,24.40
2022-12-01T11:07:20.556Z,44.38
2022-12-01T11:10:00.319Z,23.13
2022-12-01T11:12:27.226Z,45.97
2022-12-01T11:14:55.999Z,43.42
2022-12-01T11:17:22.598Z,48.15
2022-12-01T11:19:49.657Z,25.40
2022-12-01T11:22:32.049Z,29.33
2022-12-01T11:25:04.959Z,26.15
2022-12-01T11:28:01.899Z,35.05
2022-12-01T11:30:30.552Z,56.05
2022-12-01T11:33:03.305Z,32.80
2022-12-01T11:35:33.389Z,42.85
2022-12-01T11:40:56.849Z,26.40
2022-12-01T11:43:36.478Z,38.53
2022-12-01T11:46:06.721Z,26.92
2022-12-01T11:48:36.282Z,24.88
2022-12-01T11:51:08.051Z,39.80
2022-12-01T11:54:05.042Z,34.45
2022-12-01T11:56:32.135Z,32.95
2022-12-01T11:59:08.214Z,41.65
2022-12-01T12:01:38.263Z,37.45
2022-12-01T12:04:29.363Z,39.00
2022-12-01T12:07:13.510Z,36.10
2022-12-01T12:09:46.481Z,56.22
2022-12-01T12:12:45.676Z,46.78
2022-12-01T12:15:31.300Z,49.30
2022-12-01T12:18:16.561Z,48.83
2022-12-01T12:20:58.477Z,42.05
2022-12-01T12:23:57.977Z,33.72
2022-12-01T12:26:32.257Z,33.08
2022-12-01T12:29:23.276Z,36.25
2022-12-01T12:32:32.550Z,49.83
2022-12-01T12:35:28.155Z,44.55
2022-12-01T12:38:24.036Z,35.78
2022-12-01T12:41:24.904Z,37.95
2022-12-01T12:44:12.966Z,38.88
2022-12-01T12:47:17.090Z,46.38
2022-12-01T12:49:53.088Z,37.85
2022-12-01T12:52:31.317Z,34.90
2022-12-01T12:55:04.059Z,33.88
2022-12-01T12:57:35.317Z,35.80
2022-12-01T13:00:20.848Z,46.60
2022-12-01T13:03:07.649Z,38.60
2022-12-01T13:05:44.235Z,35.70
2022-12-01T13:08:24.551Z,33.55
2022-12-01T13:11:02.845Z,30.90
2022-12-01T13:13:48.273Z,41.42
2022-12-01T13:16:24.737Z,37.97
2022-12-01T13:19:03.175Z,26.02
2022-12-01T13:21:37.353Z,26.88
2022-12-01T13:24:05.237Z,38.78
2022-12-01T13:26:36.342Z,46.55
2022-12-01T13:29:06.436Z,48.50
2022-12-01T13:31:51.051Z,37.97
2022-12-01T13:34:40.989Z,40.00
2022-12-01T13:37:10.120Z,44.25
2022-12-01T13:39:39.130Z,51.55
2022-12-01T13:42:38.170Z,41.45
2022-12-01T13:45:24.984Z,35.85
2022-12-01T13:48:26.966Z,32.60
2022-12-01T13:51:23.636Z,44.75
2022-12-01T13:54:06.417Z,35.58
2022-12-01T13:56:46.799Z,42.88
2022-12-01T13:59:40.211Z,35.55
2022-12-01T14:02:16.046Z,39.28
2022-12-01T14:04:42.752Z,27.85
2022-12-01T14:07:28.130Z,31.75
2022-12-01T14:10:08.634Z,37.38
2022-12-01T14:12:37.919Z,33.03
2022-12-01T14:15:19.719Z,34.90
2022-12-01T14:17:46.660Z,38.85
2022-12-01T14:20:13.259Z,44.65
2022-12-01T14:22:46.308Z,40.08
2022-12-01T14:25:22.483Z,49.22
2022-12-01T14:27:55.079Z,46.55
2022-12-01T14:30:45.091Z,41.63
2022-12-01T14:33:39.756Z,36.70
2022-12-01T14:36:36.316Z,35.78
2022-12-01T14:39:24.939Z,29.70
2022-12-01T14:42:00.305Z,28.58
2022-12-01T14:44:33.135Z,30.38
2022-12-01T14:47:14.405Z,28.77
2022-12-01T14:50:01.301Z,30.15
2022-12-01T14:52:50.957Z,23.35
2022-12-01T14:55:22.196Z,26.92
2022-12-01T14:57:51.698Z,28.02
2022-12-01T15:00:22.281Z,32.70
2022-12-01T15:02:48.782Z,29.10
2022-12-01T15:05:21.388Z,31.85
2022-12-01T15:07:50.848Z,40.85
2022-12-01T15:10:34.574Z,33.08
2022-12-01T15:13:28.478Z,25.60
2022-12-01T15:16:04.227Z,23.60
2022-12-01T15:18:36.805Z,21.02
2022-12-01T15:21:10.203Z,24.83
2022-12-01T15:23:37.255Z,22.80
2022-12-01T15:26:04.364Z,36.50
2022-12-01T15:28:33.936Z,26.67
2022-12-01T15:31:05.149Z,32.05
2022-12-01T15:33:37.183Z,30.05
2022-12-01T15:36:04.717Z,32.78
2022-12-01T15:38:34.482Z,28.17
2022-12-01T15:43:58.274Z,29.15
2022-12-01T15:46:30.566Z,27.55
2022-12-01T15:49:17.966Z,33.00
2022-12-01T15:51:45.340Z,41.88
2022-12-01T15:54:38.774Z,33.40
2022-12-01T15:57:06.243Z,32.25
2022-12-01T15:59:35.794Z,34.45
2022-12-01T16:02:15.760Z,29.05
2022-12-01T16:04:43.498Z,36.72
2022-12-01T16:07:11.648Z,46.30
2022-12-01T16:09:42.615Z,40.45
2022-12-01T16:12:09.130Z,41.00
2022-12-01T16:14:37.689Z,39.83
2022-12-01T16:17:08.355Z,35.47
2022-12-01T16:19:36.056Z,42.15
2022-12-01T16:22:11.778Z,34.17
2022-12-01T16:24:54.789Z,35.92
2022-12-01T16:27:31.861Z,78.07
2022-12-01T16:30:02.177Z,180.35
2022-12-01T16:32:41.281Z,42.88
2022-12-01T16:35:27.578Z,36.88
2022-12-01T16:37:55.289Z,36.83
2022-12-01T16:40:22.308Z,41.25
2022-12-01T16:42:50.088Z,42.25
2022-12-01T16:45:20.660Z,36.22
2022-12-01T16:47:48.709Z,40.35
2022-12-01T16:50:17.672Z,46.28
2022-12-01T16:52:45.569Z,39.25
2022-12-01T16:55:45.554Z,41.63
2022-12-01T16:58:12.210Z,41.40
2022-12-01T17:00:38.804Z,39.35
2022-12-01T17:03:06.192Z,44.80
2022-12-01T17:05:34.067Z,43.47
2022-12-01T17:08:00.741Z,42.58
2022-12-01T17:10:27.497Z,44.15
2022-12-01T17:12:54.261Z,42.55
2022-12-01T17:15:20.948Z,49.03
2022-12-01T17:17:47.723Z,46.88
2022-12-01T17:20:14.607Z,47.55
2022-12-01T17:22:41.246Z,44.75
2022-12-01T17:25:09.781Z,45.65
2022-12-01T17:27:38.154Z,48.20
2022-12-01T17:30:06.596Z,45.88
2022-12-01T17:32:35.083Z,47.97
2022-12-01T17:35:01.909Z,45.95
2022-12-01T17:37:28.534Z,42.40
2022-12-01T17:40:00.543Z,44.05
2022-12-01T17:42:27.092Z,52.15
2022-12-01T17:44:53.750Z,49.60
2022-12-01T17:47:23.063Z,50.47
2022-12-01T17:49:49.653Z,51.28
2022-12-01T17:52:16.383Z,46.92
2022-12-01T17:54:42.988Z,59.55
2022-12-01T17:57:09.745Z,57.88
2022-12-01T17:59:37.053Z,50.17
2022-12-01T18:02:04.628Z,50.42
2022-12-01T18:04:31.697Z,47.28
2022-12-01T18:06:58.737Z,42.65
2022-12-01T18:09:25.491Z,41.38
2022-12-01T18:11:54.377Z,45.65
2022-12-01T18:14:21.186Z,39.35
2022-12-01T18:16:47.882Z,52.75
2022-12-01T18:19:14.908Z,41.05
2022-12-01T18:21:42.811Z,41.08
2022-12-01T18:24:10.272Z,45.97
2022-12-01T18:26:39.084Z,44.80
2022-12-01T18:29:13.492Z,41.83
2022-12-01T18:34:07.602Z,108.65
2022-12-01T18:36:36.656Z,105.60
2022-12-01T18:39:05.649Z,113.28
2022-12-01T18:41:32.441Z,88.40
2022-12-01T18:43:59.110Z,90.57
2022-12-01T18:46:25.987Z,75.82
2022-12-01T18:49:00.457Z,99.07
2022-12-01T18:53:55.613Z,68.13
2022-12-01T18:56:22.366Z,66.03
2022-12-01T18:58:58.372Z,85.70
2022-12-01T19:01:32.452Z,64.03
2022-12-01T19:03:59.933Z,55.78
2022-12-01T19:06:28.451Z,53.47
2022-12-01T19:08:55.919Z,57.47
2022-12-01T19:11:22.713Z,53.75
2022-12-01T19:13:49.580Z,59.85
2022-12-01T19:16:26.017Z,58.72
2022-12-01T19:18:52.859Z,59.58
2022-12-01T19:21:20.558Z,54.55
2022-12-01T19:23:47.544Z,49.72
2022-12-01T19:26:17.751Z,53.10
2022-12-01T19:28:45.724Z,71.70
2022-12-01T19:31:15.604Z,71.25
2022-12-01T19:33:42.602Z,67.07
2022-12-01T19:36:15.760Z,71.10
2022-12-01T19:38:42.647Z,82.35
2022-12-01T19:41:09.659Z,99.25
2022-12-01T19:43:37.503Z,105.90
2022-12-01T19:46:15.785Z,104.50
2022-12-01T19:48:43.262Z,111.50
2022-12-01T19:51:21.067Z,104.68
2022-12-01T19:53:48.107Z,109.78
2022-12-01T19:56:15.172Z,107.20
2022-12-01T19:58:41.837Z,102.13
2022-12-01T20:01:11.912Z,113.20
2022-12-01T20:03:40.799Z,104.47
2022-12-01T20:06:11.257Z,106.53
2022-12-01T20:08:38.782Z,112.05
2022-12-01T20:11:06.396Z,109.32
2022-12-01T20:13:34.717Z,98.47
2022-12-01T20:16:10.654Z,107.32
2022-12-01T20:18:38.565Z,100.97
2022-12-01T20:21:06.494Z,104.65
2022-12-01T20:23:33.756Z,91.10
2022-12-01T20:26:02.352Z,85.82
2022-12-01T20:28:29.078Z,96.30
2022-12-01T20:30:55.952Z,101.75
2022-12-01T20:33:23.160Z,104.60
2022-12-01T20:35:49.892Z,98.60
2022-12-01T20:38:28.731Z,103.78
2022-12-01T20:40:55.730Z,99.68
2022-12-01T20:43:22.398Z,96.50
2022-12-01T20:45:49.231Z,70.28
2022-12-01T20:48:17.871Z,61.70
2022-12-01T20:50:49.446Z,62.78
2022-12-01T20:53:16.039Z,60.53
2022-12-01T20:55:42.996Z,64.88
2022-12-01T20:58:10.066Z,57.25
2022-12-01T21:00:45.779Z,58.15
2022-12-01T21:03:13.203Z,53.25
2022-12-01T21:05:42.170Z,52.85
2022-12-01T21:08:11.236Z,51.03
2022-12-01T21:10:44.880Z,55.00
2022-12-01T21:13:46.432Z,55.80
2022-12-01T21:16:15.925Z,49.35
2022-12-01T21:18:42.478Z,54.42
2022-12-01T21:21:31.640Z,72.43
2022-12-01T21:24:07.520Z,76.13
2022-12-01T21:26:36.926Z,68.90
2022-12-01T21:29:26.979Z,63.58
2022-12-01T21:31:59.938Z,73.47
2022-12-01T21:34:28.747Z,65.85
2022-12-01T21:37:00.006Z,69.28
2022-12-01T21:39:26.721Z,65.38
2022-12-01T21:41:56.244Z,60.80
2022-12-01T21:44:29.386Z,61.63
2022-12-01T21:46:57.954Z,65.95
2022-12-01T21:49:45.428Z,57.58
2022-12-01T21:52:42.209Z,57.08
2022-12-01T21:55:14.561Z,59.78
2022-12-01T21:57:45.300Z,77.60
2022-12-01T22:00:31.854Z,61.03
2022-12-01T22:03:27.721Z,64.43
2022-12-01T22:06:29.351Z,76.53
2022-12-01T22:08:50.179Z,77.18
2022-12-01T22:11:28.098Z,87.65
2022-12-01T22:14:00.657Z,104.38
2022-12-01T22:16:30.208Z,108.15
2022-12-01T22:19:20.984Z,94.25
2022-12-01T22:21:49.258Z,100.78
2022-12-01T22:24:34.269Z,96.65
2022-12-01T22:27:34.477Z,100.35
2022-12-01T22:30:07.296Z,103.78
2022-12-01T22:32:45.207Z,119.85
2022-12-01T22:35:20.453Z,121.97
2022-12-01T22:37:53.225Z,126.45
2022-12-01T22:40:40.784Z,103.47
2022-12-01T22:43:50.653Z,119.70
2022-12-01T22:46:33.183Z,121.25
2022-12-01T22:49:20.813Z,119.95
2022-12-01T22:51:51.246Z,128.07
2022-12-01T22:54:17.831Z,124.90
2022-12-01T22:56:47.046Z,143.27
2022-12-01T22:59:35.237Z,129.60
2022-12-01T23:02:17.893Z,145.02
2022-12-01T23:04:47.924Z,126.55
2022-12-01T23:07:30.015Z,138.40
2022-12-01T23:10:04.674Z,127.22
2022-12-01T23:12:33.671Z,126.90
2022-12-01T23:15:22.222Z,125.88
2022-12-01T23:17:49.991Z,127.97
2022-12-01T23:20:28.334Z,127.80
2022-12-01T23:22:56.496Z,144.05
2022-12-01T23:25:24.562Z,139.13
2022-12-01T23:27:53.382Z,137.32
2022-12-01T23:30:21.721Z,129.35
2022-12-01T23:33:16.692Z,124.78
2022-12-01T23:36:15.683Z,123.25
2022-12-01T23:38:45.394Z,120.07
2022-12-01T23:41:32.243Z,116.25
2022-12-01T23:44:02.168Z,122.15
2022-12-01T23:46:29.152Z,121.93
2022-12-01T23:49:01.731Z,111.38
2022-12-01T23:51:33.220Z,102.90
2022-12-01T23:54:04.370Z,105.45
2022-12-01T23:56:31.819Z,101.35
2022-12-01T23:59:00.971Z,129.48
